createdAt,value
2022-10-01T00:00:21.774Z,11.5
2022-10-01T00:02:25.098Z,11.5
2022-10-01T00:04:28.080Z,11.5
2022-10-01T00:06:31.254Z,11.5
2022-10-01T00:08:34.359Z,11.4
2022-10-01T00:10:40.707Z,11.4
2022-10-01T00:12:43.978Z,11.3
2022-10-01T00:14:46.998Z,11.3
2022-10-01T00:15:50.196Z,11.2
2022-10-01T00:17:53.359Z,11.3
2022-10-01T00:21:59.617Z,11.3
2022-10-01T00:26:09.105Z,11.1
2022-10-01T00:28:12.341Z,11.3
2022-10-01T00:30:15.408Z,11.2
2022-10-01T00:32:18.549Z,11.2
2022-10-01T00:34:21.699Z,11.3
2022-10-01T00:36:24.854Z,11.2
2022-10-01T00:38:31.206Z,11.2
2022-10-01T00:40:34.348Z,11.2
2022-10-01T00:42:37.477Z,11.2
2022-10-01T00:44:40.620Z,11.2
2022-10-01T00:46:43.777Z,11.1
2022-10-01T00:48:46.926Z,11.1
2022-10-01T00:50:50.080Z,11.1
2022-10-01T00:57:02.715Z,11
2022-10-01T00:59:05.868Z,11.2
2022-10-01T01:01:09.079Z,11
2022-10-01T01:07:21.652Z,10.9
2022-10-01T01:09:24.798Z,11
2022-10-01T01:11:27.955Z,11
2022-10-01T01:12:31.115Z,10.9
2022-10-01T01:14:34.261Z,10.9
2022-10-01T01:18:40.550Z,11
2022-10-01T01:20:46.904Z,10.9
2022-10-01T01:22:50.053Z,10.8
2022-10-01T01:28:59.484Z,10.9
2022-10-01T01:39:18.445Z,11.1
2022-10-01T01:43:24.724Z,11
2022-10-01T01:45:27.906Z,11.1
2022-10-01T01:47:31.033Z,11.1
2022-10-01T01:49:37.385Z,11
2022-10-01T01:51:40.533Z,11
2022-10-01T01:53:43.674Z,11
2022-10-01T01:55:46.835Z,11.1
2022-10-01T01:57:49.987Z,11
2022-10-01T01:59:53.120Z,11.1
2022-10-01T02:01:56.376Z,11.2
2022-10-01T02:04:02.634Z,11.1
2022-10-01T02:06:05.901Z,11.2
2022-10-01T02:08:08.925Z,11.1
2022-10-01T02:10:38.774Z,11.1
2022-10-01T02:12:41.927Z,11.2
2022-10-01T02:14:45.068Z,11.2
2022-10-01T02:16:52.994Z,11.2
2022-10-01T02:18:56.085Z,11.1
2022-10-01T02:20:59.245Z,11.1
2022-10-01T02:23:02.393Z,11.3
2022-10-01T02:25:05.537Z,11.2
2022-10-01T02:27:08.676Z,11.2
2022-10-01T02:29:11.825Z,11.2
2022-10-01T02:31:18.266Z,11.2
2022-10-01T02:33:21.380Z,11.3
2022-10-01T02:35:24.547Z,11.2
2022-10-01T02:39:30.815Z,11.2
2022-10-01T02:41:34.233Z,11.2
2022-10-01T02:43:41.939Z,11.2
2022-10-01T02:49:49.775Z,11.3
2022-10-01T02:51:52.937Z,11.2
2022-10-01T02:53:56.082Z,11.1
2022-10-01T03:00:08.737Z,11.1
2022-10-01T03:02:12.120Z,11.1
2022-10-01T03:04:15.028Z,11.1
2022-10-01T03:05:18.202Z,11.2
2022-10-01T03:07:21.351Z,11.1
2022-10-01T03:09:24.504Z,11.1
2022-10-01T03:11:27.671Z,11.2
2022-10-01T03:13:34.030Z,11.2
2022-10-01T03:15:37.246Z,11.1
2022-10-01T03:17:40.331Z,11.2
2022-10-01T03:19:43.476Z,11.2
2022-10-01T03:21:46.607Z,11.1
2022-10-01T03:23:49.770Z,11.2
2022-10-01T03:25:52.911Z,11.2
2022-10-01T03:27:59.323Z,11.2
2022-10-01T03:30:02.437Z,11.2
2022-10-01T03:32:05.543Z,11.2
2022-10-01T03:34:08.715Z,11.2
2022-10-01T03:36:11.836Z,11.4
2022-10-01T03:38:14.978Z,11.3
2022-10-01T03:40:18.148Z,11.3
2022-10-01T03:42:24.540Z,11.2
2022-10-01T03:44:27.664Z,11.4
2022-10-01T03:46:30.775Z,11.3
2022-10-01T03:48:33.934Z,11.4
2022-10-01T03:50:37.076Z,11.4
2022-10-01T03:52:40.240Z,11.4
2022-10-01T03:54:43.368Z,11.5
2022-10-01T04:02:00.022Z,11.6
2022-10-01T04:04:02.992Z,11.6
2022-10-01T04:06:06.149Z,11.5
2022-10-01T04:08:09.301Z,11.6
2022-10-01T04:10:15.655Z,11.6
2022-10-01T04:12:18.818Z,11.5
2022-10-01T04:14:21.943Z,11.5
2022-10-01T04:16:25.237Z,11.5
2022-10-01T04:18:28.252Z,11.6
2022-10-01T04:20:31.403Z,11.5
2022-10-01T04:22:34.533Z,11.7
2022-10-01T04:24:40.891Z,11.7
2022-10-01T04:26:44.050Z,11.6
2022-10-01T04:28:47.171Z,11.8
2022-10-01T04:30:50.325Z,11.8
2022-10-01T04:36:59.775Z,11.8
2022-10-01T04:43:12.454Z,11.8
2022-10-01T04:49:21.898Z,12
2022-10-01T04:51:25.045Z,12
2022-10-01T04:53:31.421Z,12
2022-10-01T04:55:34.555Z,12
2022-10-01T04:57:37.696Z,12
2022-10-01T04:58:40.875Z,12.1
2022-10-01T05:00:44.064Z,12.1
2022-10-01T05:02:47.185Z,12
2022-10-01T05:04:50.326Z,12
2022-10-01T05:06:56.709Z,12.1
2022-10-01T05:08:59.854Z,12.1
2022-10-01T05:11:03.030Z,12
2022-10-01T05:13:06.156Z,12.2
2022-10-01T05:15:09.334Z,12
2022-10-01T05:17:12.457Z,12.2
2022-10-01T05:19:15.601Z,12.2
2022-10-01T05:21:21.988Z,12.2
2022-10-01T05:23:25.127Z,12.3
2022-10-01T05:25:28.281Z,12.3
2022-10-01T05:27:31.440Z,12.2
2022-10-01T05:29:34.590Z,12.4
2022-10-01T05:31:38.090Z,12.3
2022-10-01T05:33:40.920Z,12.4
2022-10-01T05:35:47.267Z,12.4
2022-10-01T05:37:50.435Z,12.4
2022-10-01T05:39:53.569Z,12.5
2022-10-01T05:41:56.699Z,12.3
2022-10-01T05:43:59.862Z,12.5
2022-10-01T05:46:03.060Z,12.3
2022-10-01T05:48:06.166Z,12.5
2022-10-01T05:50:12.524Z,12.5
2022-10-01T05:52:15.678Z,12.4
2022-10-01T05:56:42.847Z,12.6
2022-10-01T05:58:45.998Z,12.5
2022-10-01T06:02:55.581Z,12.4
2022-10-01T06:07:01.805Z,12.5
2022-10-01T06:09:04.955Z,12.4
2022-10-01T06:11:08.110Z,12.6
2022-10-01T06:13:11.254Z,12.5
2022-10-01T06:15:14.429Z,12.5
2022-10-01T06:17:20.802Z,12.5
2022-10-01T06:19:23.952Z,12.6
2022-10-01T06:21:27.112Z,12.6
2022-10-01T06:23:30.238Z,12.7
2022-10-01T06:25:33.401Z,12.7
2022-10-01T06:27:36.564Z,12.7
2022-10-01T06:29:39.715Z,12.8
2022-10-01T06:31:46.153Z,12.8
2022-10-01T06:33:49.216Z,13
2022-10-01T06:35:52.382Z,12.9
2022-10-01T06:39:58.680Z,12.8
2022-10-01T06:42:01.844Z,12.8
2022-10-01T06:44:05.003Z,12.9
2022-10-01T06:51:20.831Z,13.1
2022-10-01T06:53:23.996Z,13.1
2022-10-01T06:57:30.284Z,13.2
2022-10-01T07:01:39.876Z,13.2
2022-10-01T07:03:42.932Z,13.2
2022-10-01T07:09:52.406Z,13.3
2022-10-01T07:11:55.533Z,13.4
2022-10-01T07:14:01.928Z,13.7
2022-10-01T07:16:05.200Z,13.6
2022-10-01T07:18:08.247Z,13.7
2022-10-01T07:20:11.380Z,14.5
2022-10-01T07:22:14.551Z,14.6
2022-10-01T07:26:20.823Z,14.2
2022-10-01T07:28:27.270Z,14.1
2022-10-01T07:30:30.370Z,14
2022-10-01T07:32:33.529Z,14
2022-10-01T07:34:36.667Z,14.1
2022-10-01T07:36:39.838Z,14.1
2022-10-01T07:38:43.008Z,14.2
2022-10-01T07:40:46.149Z,14.2
2022-10-01T07:42:52.643Z,14.6
2022-10-01T07:44:55.673Z,14.3
2022-10-01T07:48:01.999Z,14.2
2022-10-01T07:52:12.973Z,14.5
2022-10-01T07:54:11.452Z,14.9
2022-10-01T07:56:17.834Z,15
2022-10-01T07:58:20.986Z,15.6
2022-10-01T08:00:24.197Z,15.4
2022-10-01T08:02:27.282Z,15.4
2022-10-01T08:04:30.398Z,15
2022-10-01T08:06:33.435Z,14.9
2022-10-01T08:14:50.599Z,14.5
2022-10-01T08:21:00.039Z,14.5
2022-10-01T08:23:03.188Z,14.4
2022-10-01T08:27:12.718Z,14.5
2022-10-01T08:29:17.164Z,14.5
2022-10-01T08:31:19.033Z,16.3
2022-10-01T08:33:22.160Z,18.2
2022-10-01T08:39:34.535Z,18.9
2022-10-01T08:43:40.616Z,19.4
2022-10-01T08:44:43.734Z,19.3
2022-10-01T08:46:46.738Z,19
2022-10-01T08:48:52.461Z,17.9
2022-10-01T08:50:52.790Z,19.9
2022-10-01T08:57:05.026Z,19
2022-10-01T09:01:11.162Z,16.3
2022-10-01T09:03:14.148Z,15.6
2022-10-01T09:07:23.365Z,15
2022-10-01T09:09:26.389Z,15
2022-10-01T09:13:32.457Z,15
2022-10-01T09:15:35.510Z,15.3
2022-10-01T09:17:38.552Z,16
2022-10-01T09:19:44.183Z,16.8
2022-10-01T09:21:47.759Z,18.1
2022-10-01T09:23:50.771Z,18.3
2022-10-01T09:25:53.833Z,17.8
2022-10-01T09:27:56.896Z,17.4
2022-10-01T09:29:59.892Z,17.8
2022-10-01T09:32:03.076Z,18.4
2022-10-01T09:34:06.001Z,18.3
2022-10-01T09:36:12.137Z,17.9
2022-10-01T09:38:15.177Z,17.9
2022-10-01T09:40:18.202Z,17.6
2022-10-01T09:50:51.487Z,16.8
2022-10-01T09:57:00.559Z,17.2
2022-10-01T10:05:15.776Z,17.4
2022-10-01T10:09:21.859Z,17.4
2022-10-01T10:11:24.877Z,18.6
2022-10-01T10:15:30.941Z,17.5
2022-10-01T10:19:40.328Z,17.4
2022-10-01T10:23:46.191Z,16.9
2022-10-01T10:25:49.259Z,17
2022-10-01T10:29:55.261Z,18.2
2022-10-01T10:32:01.418Z,17.8
2022-10-01T10:34:04.404Z,17.8
2022-10-01T10:36:07.422Z,17.5
2022-10-01T10:37:10.527Z,17.4
2022-10-01T10:39:13.527Z,17.2
2022-10-01T10:41:16.567Z,16.8
2022-10-01T10:43:19.591Z,16.7
2022-10-01T10:45:25.717Z,16.3
2022-10-01T10:47:28.755Z,16.2
2022-10-01T10:49:31.780Z,16.3
2022-10-01T10:51:35.105Z,16.3
2022-10-01T10:53:37.832Z,15.8
2022-10-01T10:55:40.866Z,15.9
2022-10-01T10:57:43.881Z,15.8
2022-10-01T10:59:50.054Z,17.1
2022-10-01T11:01:53.183Z,17.2
2022-10-01T11:03:56.123Z,16.5
2022-10-01T11:05:59.143Z,16.2
2022-10-01T11:08:02.167Z,16.2
2022-10-01T11:12:08.241Z,16.1
2022-10-01T11:18:20.433Z,17
2022-10-01T11:20:23.456Z,17.2
2022-10-01T11:22:26.496Z,17.4
2022-10-01T11:24:29.433Z,17.8
2022-10-01T11:26:32.739Z,18.3
2022-10-01T11:28:38.576Z,18.7
2022-10-01T11:30:41.573Z,18.7
2022-10-01T11:32:44.573Z,18.2
2022-10-01T11:33:47.645Z,17.9
2022-10-01T11:35:50.619Z,18
2022-10-01T11:37:53.761Z,18.4
2022-10-01T11:39:56.571Z,18.6
2022-10-01T11:42:02.683Z,18.2
2022-10-01T11:44:05.633Z,18.4
2022-10-01T11:52:17.555Z,18.1
2022-10-01T11:54:20.503Z,17.6
2022-10-01T11:56:26.610Z,17
2022-10-01T11:58:29.584Z,17.2
2022-10-01T12:00:32.564Z,17
2022-10-01T12:04:38.522Z,17.9
2022-10-01T12:12:53.590Z,18.8
2022-10-01T12:14:56.557Z,18.7
2022-10-01T12:16:59.521Z,18
2022-10-01T12:19:02.508Z,17.7
2022-10-01T12:21:05.515Z,17.4
2022-10-01T12:23:08.483Z,17.8
2022-10-01T12:27:17.581Z,18.4
2022-10-01T12:29:20.522Z,18.6
2022-10-01T12:30:23.578Z,18.9
2022-10-01T12:32:26.547Z,19.1
2022-10-01T12:34:29.524Z,19.8
2022-10-01T12:36:32.810Z,20.2
2022-10-01T12:38:38.562Z,19.9
2022-10-01T12:40:41.507Z,20.2
2022-10-01T12:42:44.458Z,20.8
2022-10-01T12:44:47.399Z,20.5
2022-10-01T12:46:50.340Z,21.3
2022-10-01T12:48:53.262Z,21.2
2022-10-01T12:50:57.203Z,20.8
2022-10-01T12:53:02.242Z,19.5
2022-10-01T12:55:05.149Z,19.8
2022-10-01T12:57:08.078Z,20.2
2022-10-01T12:59:10.969Z,19.9
2022-10-01T13:01:13.960Z,19.3
2022-10-01T13:03:17.744Z,20.6
2022-10-01T13:05:20.660Z,20.7
2022-10-01T13:07:26.723Z,21.7
2022-10-01T13:09:29.606Z,21.4
2022-10-01T13:11:32.515Z,21.6
2022-10-01T13:13:35.433Z,21.8
2022-10-01T13:15:38.347Z,22.1
2022-10-01T13:17:41.225Z,22.6
2022-10-01T13:19:44.126Z,22.8
2022-10-01T13:21:50.159Z,22.7
2022-10-01T13:23:53.049Z,22.4
2022-10-01T13:25:55.963Z,22.4
2022-10-01T13:28:23.171Z,23
2022-10-01T13:30:25.930Z,22.9
2022-10-01T13:32:28.789Z,22.8
2022-10-01T13:34:34.815Z,22.1
2022-10-01T13:36:38.115Z,21.6
2022-10-01T13:42:46.288Z,20.5
2022-10-01T13:44:49.151Z,20.2
2022-10-01T13:46:52.042Z,20.2
2022-10-01T13:48:58.069Z,19.4
2022-10-01T13:51:00.945Z,19.7
2022-10-01T13:53:03.849Z,19.4
2022-10-01T13:55:06.770Z,19
2022-10-01T13:57:09.664Z,20
2022-10-01T13:59:12.577Z,19.6
2022-10-01T14:01:16.946Z,20.7
2022-10-01T14:03:21.567Z,22.8
2022-10-01T14:05:24.488Z,22.8
2022-10-01T14:07:28.996Z,23.1
2022-10-01T14:09:31.886Z,23.1
2022-10-01T14:11:34.865Z,23.3
2022-10-01T14:13:37.747Z,22
2022-10-01T14:15:40.694Z,20.7
2022-10-01T14:17:46.711Z,22
2022-10-01T14:19:49.623Z,22.1
2022-10-01T14:21:52.534Z,22.1
2022-10-01T14:22:55.541Z,23
2022-10-01T14:31:10.391Z,19.8
2022-10-01T14:33:13.163Z,20.1
2022-10-01T14:37:18.996Z,18.6
2022-10-01T14:39:21.902Z,18.1
2022-10-01T14:43:27.723Z,17.5
2022-10-01T14:47:36.742Z,20.2
2022-10-01T14:49:39.671Z,18.5
2022-10-01T14:51:42.638Z,17.7
2022-10-01T14:53:45.565Z,17.6
2022-10-01T14:55:48.534Z,17.6
2022-10-01T14:59:57.631Z,18.1
2022-10-01T15:02:00.600Z,18.1
2022-10-01T15:06:06.565Z,17.5
2022-10-01T15:10:12.559Z,19.8
2022-10-01T15:12:15.556Z,20.5
2022-10-01T15:16:24.742Z,22.2
2022-10-01T15:18:27.671Z,22.4
2022-10-01T15:19:30.720Z,21.8
2022-10-01T15:21:33.717Z,21.8
2022-10-01T15:23:36.713Z,22
2022-10-01T15:25:39.680Z,21.1
2022-10-01T15:27:45.832Z,21.4
2022-10-01T15:29:51.526Z,21.3
2022-10-01T15:31:51.801Z,21.4
2022-10-01T15:33:54.690Z,21.1
2022-10-01T15:35:57.670Z,20.7
2022-10-01T15:38:00.647Z,20.2
2022-10-01T15:40:03.611Z,19.8
2022-10-01T15:42:09.687Z,21.7
2022-10-01T15:44:12.670Z,21.5
2022-10-01T15:46:15.657Z,21.6
2022-10-01T15:48:18.599Z,21.7
2022-10-01T15:50:21.539Z,21.6
2022-10-01T15:52:24.464Z,21.1
2022-10-01T15:54:27.432Z,20.9
2022-10-01T15:58:36.476Z,21.3
2022-10-01T16:00:39.499Z,21
2022-10-01T16:02:42.361Z,21.7
2022-10-01T16:04:45.322Z,21.4
2022-10-01T16:06:48.284Z,19.7
2022-10-01T16:08:51.228Z,18.1
2022-10-01T16:10:57.341Z,17.2
2022-10-01T16:13:00.294Z,17.1
2022-10-01T16:15:03.266Z,16.9
2022-10-01T16:16:06.361Z,16.6
2022-10-01T16:18:09.289Z,16.8
2022-10-01T16:20:12.253Z,16.6
2022-10-01T16:22:15.281Z,16.5
2022-10-01T16:24:21.379Z,16.4
2022-10-01T16:26:24.367Z,16.4
2022-10-01T16:28:27.418Z,16.4
2022-10-01T16:30:30.413Z,16.4
2022-10-01T16:32:33.408Z,16.3
2022-10-01T16:34:36.421Z,16.2
2022-10-01T16:36:39.451Z,16.2
2022-10-01T16:38:45.592Z,15.9
2022-10-01T16:40:48.600Z,16
2022-10-01T16:44:54.653Z,15.9
2022-10-01T16:46:57.681Z,15.9
2022-10-01T16:49:00.742Z,15.7
2022-10-01T16:57:15.991Z,15.5
2022-10-01T16:59:19.027Z,15.5
2022-10-01T17:03:25.129Z,15.4
2022-10-01T17:05:28.155Z,15.3
2022-10-01T17:07:34.320Z,15.2
2022-10-01T17:09:37.373Z,15.2
2022-10-01T17:11:40.412Z,15.1
2022-10-01T17:14:09.985Z,15
2022-10-01T17:18:16.058Z,15.1
2022-10-01T17:20:22.218Z,15
2022-10-01T17:22:25.292Z,14.9
2022-10-01T17:24:28.324Z,15
2022-10-01T17:26:31.735Z,14.9
2022-10-01T17:30:37.484Z,14.4
2022-10-01T17:34:47.026Z,14.5
2022-10-01T17:40:57.019Z,14.5
2022-10-01T17:42:59.651Z,14.5
2022-10-01T17:45:02.782Z,14.5
2022-10-01T17:47:05.924Z,14.4
2022-10-01T17:49:12.113Z,14.3
2022-10-01T17:51:15.169Z,14.3
2022-10-01T17:53:18.322Z,14.3
2022-10-01T17:55:21.448Z,14.3
2022-10-01T17:59:27.652Z,14.3
2022-10-01T18:01:30.859Z,14.3
2022-10-01T18:03:36.874Z,14.3
2022-10-01T18:05:40.021Z,14.2
2022-10-01T18:07:43.071Z,14.3
2022-10-01T18:08:55.146Z,14.4
2022-10-01T18:10:49.401Z,14.3
2022-10-01T18:14:55.704Z,14.3
2022-10-01T18:17:02.097Z,14.2
2022-10-01T18:21:08.387Z,14
2022-10-01T18:23:11.560Z,14.1
2022-10-01T18:25:14.715Z,14.1
2022-10-01T18:27:17.868Z,14.1
2022-10-01T18:29:21.029Z,14
2022-10-01T18:31:27.485Z,13.9
2022-10-01T18:33:30.588Z,13.9
2022-10-01T18:37:40.008Z,13.9
2022-10-01T18:43:46.380Z,14
2022-10-01T18:45:52.778Z,14
2022-10-01T18:47:55.946Z,14.1
2022-10-01T18:52:02.254Z,14.1
2022-10-01T18:54:05.399Z,14
2022-10-01T18:56:08.570Z,14
2022-10-01T18:58:11.724Z,13.9
2022-10-01T19:00:18.107Z,13.8
2022-10-01T19:05:27.606Z,13.9
2022-10-01T19:07:30.761Z,13.8
2022-10-01T19:09:33.899Z,13.8
2022-10-01T19:11:37.040Z,13.7
2022-10-01T19:13:43.434Z,13.7
2022-10-01T19:15:46.618Z,13.7
2022-10-01T19:17:49.737Z,13.6
2022-10-01T19:19:52.894Z,13.7
2022-10-01T19:21:56.036Z,13.7
2022-10-01T19:23:59.189Z,13.6
2022-10-01T19:28:08.775Z,13.4
2022-10-01T19:32:15.023Z,13.3
2022-10-01T19:36:21.329Z,13.5
2022-10-01T19:38:24.464Z,13.3
2022-10-01T19:40:27.599Z,13.3
2022-10-01T19:44:37.135Z,13.2
2022-10-01T19:48:43.456Z,13.2
2022-10-01T19:50:46.609Z,13.2
2022-10-01T19:52:49.746Z,13.2
2022-10-01T19:54:52.898Z,13.1
2022-10-01T19:56:59.267Z,13.1
2022-10-01T19:59:02.403Z,13.1
2022-10-01T20:01:05.625Z,12.9
2022-10-01T20:02:10.375Z,13
2022-10-01T20:04:13.431Z,12.9
2022-10-01T20:06:16.592Z,12.8
2022-10-01T20:08:19.745Z,12.8
2022-10-01T20:10:26.119Z,12.8
2022-10-01T20:12:29.307Z,12.6
2022-10-01T20:14:32.455Z,12.6
2022-10-01T20:16:35.900Z,12.5
2022-10-01T20:18:38.766Z,12.5
2022-10-01T20:20:41.902Z,12.5
2022-10-01T20:22:45.036Z,12.6
2022-10-01T20:24:51.369Z,12.5
2022-10-01T20:26:54.527Z,12.4
2022-10-01T20:28:57.686Z,12.5
2022-10-01T20:31:00.844Z,12.4
2022-10-01T20:33:03.989Z,12.5
2022-10-01T20:35:07.138Z,12.4
2022-10-01T20:37:10.290Z,12.3
2022-10-01T20:39:16.641Z,12.3
2022-10-01T20:41:19.767Z,12.3
2022-10-01T20:43:22.924Z,12.2
2022-10-01T20:45:26.111Z,12.3
2022-10-01T20:47:29.241Z,12.2
2022-10-01T20:49:32.369Z,12.3
2022-10-01T20:51:35.522Z,12.2
2022-10-01T20:53:41.869Z,12.3
2022-10-01T20:55:45.033Z,12.2
2022-10-01T20:57:48.184Z,12.1
2022-10-01T21:00:18.055Z,12.1
2022-10-01T21:02:21.209Z,12.1
2022-10-01T21:04:24.301Z,12.1
2022-10-01T21:08:33.825Z,12
2022-10-01T21:10:36.951Z,12.1
2022-10-01T21:14:43.250Z,12.1
2022-10-01T21:16:46.587Z,12.2
2022-10-01T21:18:49.533Z,12.2
2022-10-01T21:20:55.896Z,12.2
2022-10-01T21:22:59.043Z,12.2
2022-10-01T21:25:02.177Z,12.2
2022-10-01T21:27:05.341Z,12.1
2022-10-01T21:29:08.491Z,12.3
2022-10-01T21:33:14.762Z,12.3
2022-10-01T21:35:21.143Z,12.3
2022-10-01T21:37:24.308Z,12.3
2022-10-01T21:39:27.440Z,12.3
2022-10-01T21:41:30.592Z,12.3
2022-10-01T21:49:46.392Z,12.3
2022-10-01T21:54:55.863Z,12.3
2022-10-01T22:05:14.858Z,12.5
2022-10-01T22:07:18.005Z,12.5
2022-10-01T22:09:21.165Z,12.5
2022-10-01T22:11:24.287Z,12.6
2022-10-01T22:15:30.597Z,12.5
2022-10-01T22:21:43.278Z,12.5
2022-10-01T22:23:46.411Z,12.5
2022-10-01T22:25:49.563Z,12.5
2022-10-01T22:27:52.828Z,12.4
2022-10-01T22:29:55.883Z,12.4
2022-10-01T22:32:02.308Z,12.4
2022-10-01T22:34:05.389Z,12.4
2022-10-01T22:36:08.551Z,12.4
2022-10-01T22:38:11.719Z,12.4
2022-10-01T22:40:14.842Z,12.5
2022-10-01T22:42:17.996Z,12.3
2022-10-01T22:44:21.155Z,12.4
2022-10-01T22:46:27.525Z,12.4
2022-10-01T22:48:30.696Z,12.4
2022-10-01T22:50:33.839Z,12.5
2022-10-01T22:51:37.036Z,12.4
2022-10-01T22:53:40.299Z,12.4
2022-10-01T22:55:43.335Z,12.5
2022-10-01T22:57:46.481Z,12.5
2022-10-01T22:59:52.852Z,12.5
2022-10-01T23:01:56.084Z,12.5
2022-10-01T23:03:59.271Z,12.5
2022-10-01T23:06:02.309Z,12.5
2022-10-01T23:10:08.612Z,12.6
2022-10-01T23:12:11.754Z,12.6
2022-10-01T23:14:18.231Z,12.6
2022-10-01T23:16:21.346Z,12.7
2022-10-01T23:20:27.555Z,12.8
2022-10-01T23:22:30.712Z,12.8
2022-10-01T23:26:37.182Z,12.8
2022-10-01T23:28:43.361Z,12.7
2022-10-01T23:30:46.509Z,12.9
2022-10-01T23:32:49.664Z,13
2022-10-01T23:34:52.815Z,13
2022-10-01T23:36:55.934Z,12.9
2022-10-01T23:38:59.090Z,12.9
2022-10-01T23:41:02.245Z,13
2022-10-01T23:43:08.618Z,13
2022-10-01T23:45:11.817Z,12.9
2022-10-01T23:47:14.935Z,13
2022-10-01T23:48:18.115Z,12.9
2022-10-01T23:50:21.242Z,12.9
2022-10-01T23:54:27.539Z,12.9
2022-10-01T23:58:37.061Z,12.8
